createdAt,value
2022-10-19T00:04:16.520Z,6.65
2022-10-19T00:09:20.700Z,6.72
2022-10-19T00:14:24.820Z,6.77
2022-10-19T00:19:29.017Z,6.86
2022-10-19T00:24:33.159Z,6.89
2022-10-19T00:29:37.347Z,6.90
2022-10-19T00:34:41.474Z,6.80
2022-10-19T00:39:45.678Z,6.75
2022-10-19T00:44:49.815Z,6.71
2022-10-19T00:49:53.969Z,6.68
2022-10-19T00:54:58.144Z,6.69
2022-10-19T01:00:02.304Z,6.76
2022-10-19T01:05:06.454Z,6.74
2022-10-19T01:10:10.642Z,6.72
2022-10-19T01:15:14.781Z,6.66
2022-10-19T01:20:18.969Z,6.57
2022-10-19T01:25:23.116Z,6.53
2022-10-19T01:30:27.328Z,6.50
2022-10-19T01:35:31.451Z,6.47
2022-10-19T01:40:35.616Z,6.39
2022-10-19T01:45:39.750Z,6.33
2022-10-19T01:50:43.971Z,6.19
2022-10-19T01:55:48.069Z,6.23
2022-10-19T02:00:52.453Z,6.36
2022-10-19T02:05:56.414Z,6.39
2022-10-19T02:11:00.570Z,6.29
2022-10-19T02:16:04.739Z,6.18
2022-10-19T02:21:08.926Z,6.11
2022-10-19T02:26:13.081Z,6.01
2022-10-19T02:31:17.261Z,5.92
2022-10-19T02:36:19.496Z,5.78
2022-10-19T02:41:23.651Z,5.80
2022-10-19T02:46:27.883Z,5.75
2022-10-19T02:51:32.101Z,5.82
2022-10-19T02:56:36.171Z,5.86
2022-10-19T03:01:40.311Z,5.95
2022-10-19T03:06:44.460Z,5.95
2022-10-19T03:11:48.679Z,6.00
2022-10-19T03:16:52.793Z,6.00
2022-10-19T03:21:56.970Z,6.03
2022-10-19T03:27:01.143Z,6.07
2022-10-19T03:32:05.270Z,6.13
2022-10-19T03:37:09.475Z,6.12
2022-10-19T03:42:13.616Z,6.17
2022-10-19T03:47:17.758Z,6.19
2022-10-19T03:52:21.922Z,6.19
2022-10-19T03:57:26.129Z,6.21
2022-10-19T04:02:30.263Z,6.21
2022-10-19T04:07:34.753Z,6.24
2022-10-19T04:12:38.585Z,6.22
2022-10-19T04:17:45.622Z,6.26
2022-10-19T04:22:46.931Z,6.21
2022-10-19T04:27:51.105Z,6.19
2022-10-19T04:32:55.255Z,6.21
2022-10-19T04:37:59.437Z,6.20
2022-10-19T04:43:03.557Z,6.20
2022-10-19T04:48:07.732Z,6.17
2022-10-19T04:53:11.965Z,6.17
2022-10-19T04:58:16.096Z,6.19
2022-10-19T05:03:20.256Z,6.23
2022-10-19T05:08:24.411Z,6.28
2022-10-19T05:13:28.569Z,6.31
2022-10-19T05:18:32.710Z,6.33
2022-10-19T05:23:36.881Z,6.34
2022-10-19T05:28:41.146Z,6.33
2022-10-19T05:33:45.215Z,6.30
2022-10-19T05:43:53.543Z,6.28
2022-10-19T05:48:57.693Z,6.27
2022-10-19T05:54:01.899Z,6.32
2022-10-19T05:59:06.043Z,6.36
2022-10-19T06:04:10.245Z,6.40
2022-10-19T06:09:14.374Z,6.36
2022-10-19T06:14:18.507Z,6.36
2022-10-19T06:19:22.735Z,6.43
2022-10-19T06:24:26.842Z,6.41
2022-10-19T06:29:31.036Z,6.41
2022-10-19T06:34:35.147Z,6.42
2022-10-19T06:39:39.420Z,6.44
2022-10-19T06:44:43.509Z,6.53
2022-10-19T06:49:47.643Z,6.63
2022-10-19T06:54:51.829Z,6.76
2022-10-19T06:59:56.002Z,6.87
2022-10-19T07:05:04.671Z,7.01
2022-10-19T07:10:04.309Z,7.14
2022-10-19T07:15:08.474Z,7.17
2022-10-19T07:20:12.620Z,7.29
2022-10-19T07:25:16.799Z,7.44
2022-10-19T07:30:20.938Z,7.31
2022-10-19T07:35:25.133Z,7.45
2022-10-19T07:40:29.274Z,7.45
2022-10-19T07:45:33.447Z,7.47
2022-10-19T07:50:37.621Z,7.58
2022-10-19T07:55:41.755Z,7.66
2022-10-19T08:00:45.948Z,7.81
2022-10-19T08:05:48.226Z,7.81
2022-10-19T08:10:52.361Z,7.71
2022-10-19T08:15:56.570Z,7.77
2022-10-19T08:21:00.684Z,7.80
2022-10-19T08:26:04.848Z,7.82
2022-10-19T08:31:09.003Z,7.92
2022-10-19T08:36:11.306Z,8.06
2022-10-19T08:41:15.446Z,8.34
2022-10-19T08:46:19.602Z,8.46
2022-10-19T08:51:23.756Z,8.65
2022-10-19T08:56:49.356Z,8.83
2022-10-19T09:01:33.945Z,9.05
2022-10-19T09:06:36.254Z,9.28
2022-10-19T09:11:40.412Z,9.44
2022-10-19T09:16:44.585Z,9.57
2022-10-19T09:21:48.769Z,9.74
2022-10-19T09:26:52.903Z,9.87
2022-10-19T09:37:01.420Z,10.20
2022-10-19T09:42:05.387Z,10.52
2022-10-19T09:47:12.918Z,10.71
2022-10-19T09:52:13.710Z,10.99
2022-10-19T09:57:17.893Z,11.16
2022-10-19T10:02:22.050Z,11.34
2022-10-19T10:07:26.165Z,11.56
2022-10-19T10:12:30.361Z,11.75
2022-10-19T10:17:34.504Z,11.82
2022-10-19T10:22:38.644Z,12.01
2022-10-19T10:27:42.848Z,12.15
2022-10-19T10:32:48.084Z,12.29
2022-10-19T10:37:51.141Z,12.60
2022-10-19T10:42:55.343Z,12.68
2022-10-19T10:47:59.528Z,12.79
2022-10-19T10:53:03.641Z,12.89
2022-10-19T10:58:07.784Z,12.87
2022-10-19T11:03:11.938Z,13.03
2022-10-19T11:08:16.158Z,13.28
2022-10-19T11:13:20.285Z,13.42
2022-10-19T11:18:24.435Z,13.59
2022-10-19T11:23:28.583Z,13.59
2022-10-19T11:28:32.788Z,13.53
2022-10-19T11:33:36.949Z,13.76
2022-10-19T11:38:41.095Z,13.94
2022-10-19T11:43:45.258Z,13.88
2022-10-19T11:48:52.931Z,14.21
2022-10-19T11:53:53.578Z,14.18
2022-10-19T11:58:57.737Z,14.07
2022-10-19T12:04:01.896Z,14.01
2022-10-19T12:09:06.114Z,14.08
2022-10-19T12:14:10.206Z,14.27
2022-10-19T12:19:14.368Z,14.25
2022-10-19T12:24:18.523Z,14.27
2022-10-19T12:29:22.692Z,14.37
2022-10-19T12:34:26.867Z,14.48
2022-10-19T12:39:31.009Z,14.78
2022-10-19T12:44:35.156Z,14.90
2022-10-19T12:49:39.294Z,14.98
2022-10-19T12:54:43.487Z,14.97
2022-10-19T12:59:47.671Z,14.88
2022-10-19T13:04:51.809Z,14.88
2022-10-19T13:09:55.982Z,14.84
2022-10-19T13:15:00.149Z,15.11
2022-10-19T13:20:04.323Z,15.20
2022-10-19T13:25:08.438Z,15.11
2022-10-19T13:30:12.594Z,15.23
2022-10-19T13:35:16.755Z,15.20
2022-10-19T13:40:24.482Z,15.19
2022-10-19T13:45:25.065Z,15.49
2022-10-19T13:50:29.240Z,15.29
2022-10-19T13:55:33.409Z,15.55
2022-10-19T14:00:37.590Z,15.41
2022-10-19T14:05:39.884Z,15.53
2022-10-19T14:11:00.253Z,15.40
2022-10-19T14:15:48.169Z,15.25
2022-10-19T14:20:52.324Z,15.32
2022-10-19T14:25:56.487Z,15.04
2022-10-19T14:31:00.635Z,14.97
2022-10-19T14:36:04.804Z,14.88
2022-10-19T14:41:08.942Z,14.73
2022-10-19T14:46:13.100Z,14.61
2022-10-19T14:51:17.245Z,14.48
2022-10-19T14:56:21.407Z,14.50
2022-10-19T15:01:25.624Z,14.43
2022-10-19T15:06:29.716Z,14.34
2022-10-19T15:11:33.897Z,14.18
2022-10-19T15:16:38.060Z,14.07
2022-10-19T15:21:42.206Z,13.88
2022-10-19T15:26:46.377Z,13.76
2022-10-19T15:31:50.564Z,13.60
2022-10-19T15:36:54.678Z,13.49
2022-10-19T15:41:58.902Z,13.40
2022-10-19T15:47:03.008Z,13.35
2022-10-19T15:52:07.195Z,13.14
2022-10-19T15:57:11.346Z,13.01
2022-10-19T16:02:15.482Z,12.89
2022-10-19T16:07:19.659Z,12.72
2022-10-19T16:12:23.840Z,12.62
2022-10-19T16:17:28.012Z,12.47
2022-10-19T16:22:32.148Z,12.34
2022-10-19T16:27:36.772Z,12.18
2022-10-19T16:37:44.594Z,11.86
2022-10-19T16:42:48.803Z,11.78
2022-10-19T16:47:52.947Z,11.65
2022-10-19T16:52:57.100Z,11.57
2022-10-19T16:58:01.279Z,11.40
2022-10-19T17:03:05.421Z,11.28
2022-10-19T17:08:09.570Z,11.19
2022-10-19T17:13:13.734Z,11.08
2022-10-19T17:23:22.101Z,10.86
2022-10-19T17:28:27.726Z,10.76
2022-10-19T17:33:30.397Z,10.70
2022-10-19T17:38:34.542Z,10.65
2022-10-19T17:43:38.753Z,10.58
2022-10-19T17:48:42.912Z,10.50
2022-10-19T17:53:47.056Z,10.41
2022-10-19T17:58:51.178Z,10.28
2022-10-19T18:03:55.399Z,10.19
2022-10-19T18:08:59.612Z,10.10
2022-10-19T18:14:03.705Z,10.00
2022-10-19T18:19:07.865Z,9.85
2022-10-19T18:24:15.110Z,9.81
2022-10-19T18:29:16.289Z,9.72
2022-10-19T18:34:20.334Z,9.63
2022-10-19T18:39:24.519Z,9.42
2022-10-19T18:44:31.400Z,9.38
2022-10-19T18:49:32.897Z,9.34
2022-10-19T18:54:36.981Z,9.18
2022-10-19T18:59:41.173Z,9.03
2022-10-19T19:04:45.354Z,8.93
2022-10-19T19:09:49.554Z,8.93
2022-10-19T19:14:53.631Z,8.87
2022-10-19T19:19:57.839Z,8.73
2022-10-19T19:25:01.946Z,8.59
2022-10-19T19:30:06.138Z,8.53
2022-10-19T19:35:08.362Z,8.32
2022-10-19T19:40:12.558Z,8.26
2022-10-19T19:45:16.702Z,8.22
2022-10-19T19:50:20.879Z,8.20
2022-10-19T19:55:25.023Z,8.04
2022-10-19T20:00:29.159Z,7.84
2022-10-19T20:05:33.393Z,7.61
2022-10-19T20:10:37.479Z,7.47
2022-10-19T20:15:41.668Z,7.51
2022-10-19T20:20:45.816Z,7.29
2022-10-19T20:25:50.000Z,7.18
2022-10-19T20:30:54.265Z,7.01
2022-10-19T20:35:58.320Z,6.91
2022-10-19T20:41:05.473Z,6.77
2022-10-19T20:46:06.667Z,6.73
2022-10-19T20:51:10.812Z,6.59
2022-10-19T20:56:14.998Z,6.52
2022-10-19T21:01:19.164Z,6.40
2022-10-19T21:06:23.277Z,6.25
2022-10-19T21:11:27.483Z,6.19
2022-10-19T21:16:31.641Z,6.02
2022-10-19T21:21:35.766Z,6.05
2022-10-19T21:26:39.990Z,6.07
2022-10-19T21:31:46.490Z,6.08
2022-10-19T21:36:48.294Z,6.03
2022-10-19T21:41:52.451Z,5.98
2022-10-19T21:46:56.620Z,6.01
2022-10-19T21:52:00.759Z,5.98
2022-10-19T21:57:04.935Z,6.03
2022-10-19T22:02:09.155Z,5.80
2022-10-19T22:07:13.258Z,5.70
2022-10-19T22:12:17.490Z,5.50
2022-10-19T22:17:21.580Z,5.51
2022-10-19T22:22:25.781Z,5.41
2022-10-19T22:27:29.904Z,5.42
2022-10-19T22:32:34.342Z,5.35
2022-10-19T22:37:38.236Z,5.26
2022-10-19T22:42:42.422Z,5.33
2022-10-19T22:47:46.616Z,5.28
2022-10-19T22:52:50.729Z,5.25
2022-10-19T22:57:54.898Z,5.28
2022-10-19T23:02:59.047Z,5.18
2022-10-19T23:08:03.243Z,5.12
2022-10-19T23:13:07.373Z,5.12
2022-10-19T23:18:11.518Z,5.39
2022-10-19T23:23:15.700Z,5.36
2022-10-19T23:28:19.899Z,5.30
2022-10-19T23:33:24.018Z,5.41
2022-10-19T23:38:28.172Z,5.56
2022-10-19T23:43:32.433Z,5.72
2022-10-19T23:48:36.536Z,5.89
2022-10-19T23:53:41.354Z,5.89
2022-10-19T23:58:44.841Z,5.95
